Time;durP1;ratioP1;P1;durP2;ratioP2;P2;SDS_P1;SDS_P2;PMS_P1;PMS_P2;Temp;Humidity;BMP_temperature;BMP_pressure;BME280_temperature;BME280_humidity;BME280_pressure;Samples;Min_cycle;Max_cycle;Signal;HPM_P1;HPM_P2
2022/03/15 06:00:28;;;;;;;10.70;5.40;;;10.00;97.20;;;;;;1700865;29;20655;-76
2022/03/15 06:01:18;;;;;;;6.32;5.10;;;10.00;97.20;;;;;;1694343;29;20208;-76
2022/03/15 06:02:10;;;;;;;7.23;5.63;;;10.00;97.20;;;;;;1694348;29;20663;-76
2022/03/15 06:03:01;;;;;;;8.00;5.50;;;10.00;97.20;;;;;;1694331;29;20210;-76
2022/03/15 06:03:53;;;;;;;7.05;5.40;;;10.00;97.20;;;;;;1698816;29;20291;-76
2022/03/15 06:04:45;;;;;;;11.95;5.32;;;10.00;97.20;;;;;;1700654;29;20218;-76
2022/03/15 06:05:37;;;;;;;7.30;4.90;;;10.00;97.20;;;;;;1700832;29;20226;-77
2022/03/15 06:06:27;;;;;;;5.75;5.20;;;10.00;97.20;;;;;;1700790;29;20288;-76
2022/03/15 06:07:19;;;;;;;8.10;5.30;;;10.00;97.20;;;;;;1700872;29;20294;-77
2022/03/15 06:08:10;;;;;;;7.90;5.50;;;10.00;97.20;;;;;;1700392;29;20218;-77
2022/03/15 06:09:02;;;;;;;7.40;5.55;;;9.90;97.20;;;;;;1700964;29;20231;-76
2022/03/15 06:09:53;;;;;;;7.05;5.10;;;9.90;97.20;;;;;;1700743;29;20255;-76
2022/03/15 06:10:45;;;;;;;10.98;6.07;;;9.90;97.20;;;;;;1700798;29;20566;-77
2022/03/15 06:11:39;;;;;;;10.98;5.25;;;9.80;97.20;;;;;;1700907;29;20555;-77
2022/03/15 06:12:30;;;;;;;6.50;5.00;;;9.80;97.20;;;;;;1700820;29;20234;-76
2022/03/15 06:13:21;;;;;;;9.70;5.10;;;9.80;97.20;;;;;;1700770;29;20214;-76
2022/03/15 06:14:13;;;;;;;5.23;4.40;;;9.80;97.20;;;;;;1700777;29;20199;-76
2022/03/15 06:15:04;;;;;;;6.15;4.95;;;9.70;97.20;;;;;;1700668;29;20235;-77
2022/03/15 06:15:57;;;;;;;6.32;5.45;;;9.70;97.20;;;;;;1700808;29;20662;-76
2022/03/15 06:16:49;;;;;;;5.97;4.60;;;9.70;97.20;;;;;;1700745;29;20648;-77
2022/03/15 06:17:45;;;;;;;7.68;4.85;;;9.70;97.20;;;;;;1700844;29;20199;-77
2022/03/15 06:18:37;;;;;;;5.90;4.50;;;9.70;97.20;;;;;;1700191;29;20207;-77
2022/03/15 06:19:27;;;;;;;5.40;4.50;;;9.70;97.20;;;;;;1700957;29;20297;-76
2022/03/15 06:20:20;;;;;;;6.30;4.93;;;9.60;97.20;;;;;;1700798;29;20211;-77
2022/03/15 06:21:11;;;;;;;9.75;5.13;;;9.70;97.20;;;;;;1700922;29;20261;-78
2022/03/15 06:22:03;;;;;;;7.80;4.97;;;9.70;97.20;;;;;;1700784;29;20211;-76
2022/03/15 06:22:54;;;;;;;5.50;4.88;;;9.70;97.20;;;;;;1700812;29;20219;-76
2022/03/15 06:23:45;;;;;;;4.30;3.90;;;9.60;97.20;;;;;;1701239;29;20203;-77
2022/03/15 06:24:37;;;;;;;7.90;4.95;;;9.60;97.20;;;;;;1700628;29;20263;-77
2022/03/15 06:25:30;;;;;;;4.78;3.90;;;9.60;97.20;;;;;;1700815;29;20328;-79
2022/03/15 06:26:21;;;;;;;5.18;4.10;;;9.60;97.20;;;;;;1700784;29;20677;-76
2022/03/15 06:27:13;;;;;;;4.88;4.38;;;9.60;97.20;;;;;;1700583;29;20286;-76
2022/03/15 06:28:04;;;;;;;5.72;4.60;;;9.60;97.20;;;;;;1700238;29;20210;-76
2022/03/15 06:28:56;;;;;;;6.18;4.03;;;9.60;97.20;;;;;;1700703;29;20663;-77
2022/03/15 06:29:50;;;;;;;6.60;4.00;;;9.60;97.20;;;;;;1700526;29;20302;-76
2022/03/15 06:30:41;;;;;;;6.78;4.70;;;9.50;97.20;;;;;;1700603;29;20215;-76
2022/03/15 06:31:34;;;;;;;5.43;4.28;;;9.50;97.20;;;;;;1700621;29;20620;-76
2022/03/15 06:32:25;;;;;;;8.15;4.55;;;9.50;97.20;;;;;;1700717;29;20230;-76
2022/03/15 06:33:17;;;;;;;6.40;4.50;;;9.50;97.20;;;;;;1700753;29;20206;-76
2022/03/15 06:34:07;;;;;;;5.22;3.97;;;9.50;97.20;;;;;;1700374;29;20730;-76
2022/03/15 06:35:00;;;;;;;5.37;3.87;;;9.50;97.20;;;;;;1699934;29;20554;-76
2022/03/15 06:35:51;;;;;;;5.00;4.07;;;9.50;97.20;;;;;;1699939;29;20621;-76
2022/03/15 06:36:43;;;;;;;8.87;4.40;;;9.50;97.20;;;;;;1700050;29;20203;-76
2022/03/15 06:37:36;;;;;;;4.40;4.00;;;9.50;97.20;;;;;;1699927;29;20217;-76
2022/03/15 06:38:29;;;;;;;6.80;4.57;;;9.50;97.20;;;;;;1699714;29;20203;-76
2022/03/15 06:39:20;;;;;;;7.45;4.40;;;9.60;97.20;;;;;;1700478;29;20689;-76
2022/03/15 06:40:12;;;;;;;5.70;4.37;;;9.60;97.20;;;;;;1700538;29;20590;-76
2022/03/15 06:41:03;;;;;;;5.95;4.10;;;9.60;97.20;;;;;;1700482;29;20273;-76
2022/03/15 06:41:55;;;;;;;7.23;4.50;;;9.60;97.20;;;;;;1700562;29;20198;-76
2022/03/15 06:42:46;;;;;;;6.30;4.97;;;9.60;97.20;;;;;;1700562;29;20203;-76
2022/03/15 06:43:39;;;;;;;4.72;4.10;;;9.70;97.20;;;;;;1700587;29;20195;-75
2022/03/15 06:44:30;;;;;;;4.35;3.72;;;9.70;97.20;;;;;;1700438;29;20365;-75
2022/03/15 06:45:22;;;;;;;5.73;3.60;;;9.80;97.20;;;;;;1700512;29;20236;-75
2022/03/15 06:46:14;;;;;;;6.25;4.15;;;9.80;97.20;;;;;;1700601;29;20561;-77
2022/03/15 06:47:08;;;;;;;8.80;4.38;;;9.80;97.20;;;;;;1700655;29;20450;-76
2022/03/15 06:47:59;;;;;;;5.53;4.60;;;9.80;97.20;;;;;;1697940;29;20242;-76
2022/03/15 06:48:50;;;;;;;6.73;4.63;;;9.90;97.20;;;;;;1698590;29;20204;-75
2022/03/15 06:49:42;;;;;;;5.40;4.90;;;9.90;97.20;;;;;;1699343;29;20921;-76
2022/03/15 06:50:34;;;;;;;6.40;4.60;;;9.90;97.20;;;;;;1699691;29;20211;-76
2022/03/15 06:51:25;;;;;;;6.93;4.68;;;9.90;97.20;;;;;;1698270;29;20202;-77
2022/03/15 06:52:17;;;;;;;5.30;4.80;;;10.00;97.20;;;;;;1697161;29;20226;-76
2022/03/15 06:53:07;;;;;;;8.02;4.55;;;10.00;97.20;;;;;;1698591;29;20450;-77
2022/03/15 06:53:59;;;;;;;7.27;4.17;;;10.00;97.20;;;;;;1700318;29;20203;-76
2022/03/15 06:54:50;;;;;;;6.28;4.70;;;10.00;97.20;;;;;;1694565;29;20196;-77
2022/03/15 06:55:42;;;;;;;7.87;4.50;;;10.00;97.20;;;;;;1697481;29;20199;-76
2022/03/15 06:56:34;;;;;;;8.35;4.03;;;10.00;97.20;;;;;;1696852;29;20459;-76
2022/03/15 06:57:26;;;;;;;7.07;4.70;;;10.00;97.20;;;;;;1699697;29;20191;-77
2022/03/15 06:58:17;;;;;;;6.75;4.45;;;10.00;97.20;;;;;;1700087;29;20670;-77
2022/03/15 06:59:09;;;;;;;4.93;4.45;;;10.00;97.20;;;;;;1700395;29;20549;-76
2022/03/15 07:00:00;;;;;;;6.20;4.45;;;10.00;97.20;;;;;;1700480;29;20733;-77
2022/03/15 07:00:52;;;;;;;6.88;4.20;;;10.00;97.20;;;;;;1700267;29;20643;-77
2022/03/15 07:01:42;;;;;;;5.30;4.10;;;10.10;97.20;;;;;;1700099;29;20203;-76
2022/03/15 07:02:36;;;;;;;5.37;4.00;;;10.10;97.20;;;;;;1696716;29;20208;-77
2022/03/15 07:03:26;;;;;;;6.20;4.13;;;10.10;97.20;;;;;;1695849;29;20460;-77
2022/03/15 07:04:18;;;;;;;5.40;4.40;;;10.10;97.20;;;;;;1695157;29;20200;-77
2022/03/15 07:05:09;;;;;;;7.78;4.90;;;10.10;97.20;;;;;;1695286;29;20255;-79
2022/03/15 07:06:01;;;;;;;8.65;4.85;;;10.10;97.20;;;;;;1694748;29;20263;-77
2022/03/15 07:06:52;;;;;;;6.18;4.05;;;10.10;97.20;;;;;;1695127;29;20239;-76
2022/03/15 07:07:44;;;;;;;6.75;4.80;;;10.10;97.20;;;;;;1694649;29;20217;-76
2022/03/15 07:08:35;;;;;;;4.93;4.20;;;10.10;97.20;;;;;;1696287;29;20238;-76
2022/03/15 07:09:26;;;;;;;5.27;4.00;;;10.10;97.20;;;;;;1691910;29;20828;-76
2022/03/15 07:10:17;;;;;;;9.35;4.47;;;10.10;97.20;;;;;;1694632;29;20246;-76
2022/03/15 07:11:09;;;;;;;6.88;4.10;;;10.10;97.20;;;;;;1694546;29;20757;-76
2022/03/15 07:12:00;;;;;;;5.10;4.35;;;10.10;97.20;;;;;;1694083;29;20411;-76
2022/03/15 07:12:52;;;;;;;5.32;4.38;;;10.10;97.20;;;;;;1694057;29;20215;-77
2022/03/15 07:13:43;;;;;;;6.32;4.28;;;10.10;97.20;;;;;;1694338;29;20729;-77
2022/03/15 07:14:34;;;;;;;7.93;4.70;;;10.10;97.20;;;;;;1695886;29;20218;-77
2022/03/15 07:15:25;;;;;;;5.70;4.07;;;10.10;97.20;;;;;;1693933;29;20259;-76
2022/03/15 07:16:17;;;;;;;8.03;4.60;;;10.10;97.20;;;;;;1695321;29;20203;-77
2022/03/15 07:17:08;;;;;;;7.57;4.53;;;10.10;97.20;;;;;;1695547;29;20957;-77
2022/03/15 07:18:01;;;;;;;4.70;4.03;;;10.10;97.20;;;;;;1695204;29;20222;-76
2022/03/15 07:18:52;;;;;;;6.50;4.10;;;10.10;97.20;;;;;;1695160;29;20215;-76
2022/03/15 07:19:44;;;;;;;7.15;4.40;;;10.10;97.20;;;;;;1695163;29;20210;-77
2022/03/15 07:20:35;;;;;;;7.15;3.80;;;10.10;97.20;;;;;;1695906;29;20258;-77
2022/03/15 07:21:27;;;;;;;7.07;4.30;;;10.10;97.20;;;;;;1696433;29;20199;-77
2022/03/15 07:22:18;;;;;;;8.20;3.72;;;10.10;97.20;;;;;;1695708;29;20571;-77
2022/03/15 07:23:10;;;;;;;5.83;4.30;;;10.10;97.20;;;;;;1694730;29;20204;-77
2022/03/15 07:24:00;;;;;;;5.07;4.18;;;10.10;97.20;;;;;;1695375;29;20221;-77
2022/03/15 07:24:52;;;;;;;6.43;4.37;;;10.20;97.20;;;;;;1695448;29;20223;-77
2022/03/15 07:25:43;;;;;;;6.43;4.80;;;10.10;97.20;;;;;;1696234;29;20212;-77
2022/03/15 07:26:35;;;;;;;5.27;4.13;;;10.10;97.20;;;;;;1696547;29;20196;-77
2022/03/15 07:27:25;;;;;;;7.50;4.72;;;10.20;97.20;;;;;;1697945;29;20199;-76
2022/03/15 07:28:17;;;;;;;6.00;4.30;;;10.20;97.20;;;;;;1700148;29;20203;-77
2022/03/15 07:29:08;;;;;;;5.38;4.63;;;10.20;97.20;;;;;;1700377;29;20210;-76
2022/03/15 07:30:00;;;;;;;4.50;3.80;;;10.20;97.20;;;;;;1700116;29;20199;-76
2022/03/15 07:30:51;;;;;;;9.20;4.80;;;10.20;97.20;;;;;;1700388;29;20616;-77
2022/03/15 07:31:43;;;;;;;15.37;5.03;;;10.20;97.20;;;;;;1699541;29;20739;-77
2022/03/15 07:32:34;;;;;;;13.32;5.57;;;10.20;97.20;;;;;;1696729;29;20196;-77
2022/03/15 07:33:27;;;;;;;10.52;5.30;;;10.30;97.20;;;;;;1695550;29;20214;-76
2022/03/15 07:34:18;;;;;;;12.05;5.35;;;10.30;97.20;;;;;;1696391;29;20585;-77
2022/03/15 07:35:10;;;;;;;11.80;4.77;;;10.30;97.20;;;;;;1695042;29;20579;-76
2022/03/15 07:36:02;;;;;;;12.52;4.93;;;10.40;97.20;;;;;;1695639;29;20649;-77
2022/03/15 07:36:54;;;;;;;8.48;4.57;;;10.40;97.20;;;;;;1697675;29;20663;-77
2022/03/15 07:37:49;;;;;;;10.15;4.88;;;10.50;97.20;;;;;;1696774;29;20238;-76
2022/03/15 07:38:41;;;;;;;6.32;3.80;;;10.50;97.20;;;;;;1695588;29;20564;-77
2022/03/15 07:39:31;;;;;;;6.68;4.18;;;10.50;97.20;;;;;;1695915;29;20231;-77
2022/03/15 07:40:25;;;;;;;8.03;4.23;;;10.50;97.20;;;;;;1696933;29;20207;-76
2022/03/15 07:41:16;;;;;;;7.35;4.50;;;10.60;97.20;;;;;;1697544;29;20238;-77
2022/03/15 07:42:08;;;;;;;9.45;4.90;;;10.60;97.20;;;;;;1697026;29;20202;-77
2022/03/15 07:42:59;;;;;;;8.25;4.38;;;10.60;97.20;;;;;;1696481;29;20212;-76
2022/03/15 07:43:51;;;;;;;7.43;3.70;;;10.60;97.20;;;;;;1695853;29;20206;-76
2022/03/15 07:44:42;;;;;;;6.65;3.53;;;10.70;97.20;;;;;;1697273;29;20591;-77
2022/03/15 07:45:34;;;;;;;7.22;3.72;;;10.70;97.20;;;;;;1697107;29;20383;-77
2022/03/15 07:46:25;;;;;;;6.20;4.10;;;10.70;97.20;;;;;;1696091;29;20290;-76
2022/03/15 07:47:16;;;;;;;4.93;3.57;;;10.70;97.20;;;;;;1696691;29;20208;-76
2022/03/15 07:48:07;;;;;;;6.38;3.92;;;10.80;97.20;;;;;;1695141;29;20498;-76
2022/03/15 07:49:00;;;;;;;5.60;3.57;;;10.80;97.20;;;;;;1697287;29;20208;-77
2022/03/15 07:49:51;;;;;;;5.05;4.25;;;10.80;97.20;;;;;;1696805;29;20580;-77
2022/03/15 07:50:43;;;;;;;5.85;3.70;;;10.90;97.20;;;;;;1699095;29;20204;-76
2022/03/15 07:51:34;;;;;;;6.97;4.00;;;10.90;97.20;;;;;;1695897;29;20643;-77
2022/03/15 07:52:26;;;;;;;4.70;3.50;;;10.90;97.20;;;;;;1697316;29;20297;-77
2022/03/15 07:53:17;;;;;;;8.30;3.50;;;11.00;97.20;;;;;;1696542;29;20212;-76
2022/03/15 07:54:09;;;;;;;5.47;3.45;;;11.00;97.20;;;;;;1696299;29;20191;-76
2022/03/15 07:55:00;;;;;;;5.63;3.85;;;11.00;97.20;;;;;;1695926;29;20251;-77
2022/03/15 07:55:51;;;;;;;5.33;4.10;;;11.00;97.20;;;;;;1696700;29;20214;-76
2022/03/15 07:56:43;;;;;;;5.50;3.40;;;11.10;97.20;;;;;;1696444;29;20231;-76
2022/03/15 07:57:35;;;;;;;5.00;4.18;;;11.10;97.20;;;;;;1698048;29;20203;-76
2022/03/15 07:58:26;;;;;;;6.05;4.22;;;11.10;97.20;;;;;;1694722;29;20679;-77
2022/03/15 07:59:18;;;;;;;7.75;4.35;;;11.10;97.20;;;;;;1701256;29;20211;-77
2022/03/15 08:00:10;;;;;;;7.32;4.10;;;11.10;97.20;;;;;;1701572;29;20214;-77
2022/03/15 08:01:02;;;;;;;5.95;3.75;;;11.10;97.20;;;;;;1701606;29;20206;-77
2022/03/15 08:01:53;;;;;;;9.48;4.05;;;11.20;97.20;;;;;;1700417;29;20216;-76
2022/03/15 08:02:44;;;;;;;7.67;3.90;;;11.20;97.20;;;;;;1697037;29;20211;-77
2022/03/15 08:03:35;;;;;;;4.45;3.60;;;11.20;97.20;;;;;;1696449;29;20510;-77
2022/03/15 08:04:28;;;;;;;6.80;4.80;;;11.20;97.20;;;;;;1695982;29;20203;-77
2022/03/15 08:05:19;;;;;;;5.57;3.92;;;11.20;97.20;;;;;;1696502;29;20734;-77
2022/03/15 08:06:11;;;;;;;5.97;3.92;;;11.20;97.20;;;;;;1696291;29;20298;-77
2022/03/15 08:07:02;;;;;;;7.55;4.38;;;11.20;97.20;;;;;;1696521;29;20242;-77
2022/03/15 08:07:54;;;;;;;7.13;4.07;;;11.20;97.20;;;;;;1695244;29;20195;-77
2022/03/15 08:08:45;;;;;;;5.88;3.90;;;11.20;97.20;;;;;;1695130;29;20231;-77
2022/03/15 08:09:38;;;;;;;5.60;4.17;;;11.20;97.20;;;;;;1696845;29;20203;-77
2022/03/15 08:10:30;;;;;;;5.55;3.70;;;11.20;97.20;;;;;;1696907;29;20456;-77
2022/03/15 08:11:21;;;;;;;6.13;4.95;;;11.20;97.20;;;;;;1696312;29;20199;-77
2022/03/15 08:12:13;;;;;;;8.38;4.30;;;11.20;97.20;;;;;;1696655;29;20203;-76
2022/03/15 08:13:04;;;;;;;7.28;4.00;;;11.20;97.20;;;;;;1697875;29;20213;-77
2022/03/15 08:13:55;;;;;;;6.80;4.57;;;11.20;97.20;;;;;;1696533;29;20629;-77
2022/03/15 08:14:48;;;;;;;8.32;4.10;;;11.10;97.20;;;;;;1695864;29;20649;-77
2022/03/15 08:15:40;;;;;;;6.38;3.85;;;11.20;97.20;;;;;;1696615;29;20211;-77
2022/03/15 08:16:31;;;;;;;7.25;3.45;;;11.20;97.20;;;;;;1695947;29;20653;-76
2022/03/15 08:17:22;;;;;;;7.90;4.70;;;11.20;97.20;;;;;;1696819;29;20240;-76
2022/03/15 08:18:14;;;;;;;5.73;4.10;;;11.20;97.20;;;;;;1696710;29;20203;-76
2022/03/15 08:19:05;;;;;;;6.90;3.95;;;11.30;97.20;;;;;;1696502;29;20199;-77
2022/03/15 08:19:58;;;;;;;5.63;3.90;;;11.20;97.20;;;;;;1696297;29;20223;-76
2022/03/15 08:20:49;;;;;;;4.85;4.35;;;11.30;97.20;;;;;;1696423;29;20208;-77
2022/03/15 08:21:40;;;;;;;5.90;4.40;;;11.30;97.20;;;;;;1697018;29;20199;-77
2022/03/15 08:22:31;;;;;;;7.70;4.60;;;11.30;97.20;;;;;;1696005;29;21011;-77
2022/03/15 08:23:23;;;;;;;6.60;4.13;;;11.30;97.20;;;;;;1696304;29;20211;-77
2022/03/15 08:24:15;;;;;;;5.65;4.10;;;11.30;97.20;;;;;;1695253;29;20199;-77
2022/03/15 08:25:08;;;;;;;6.95;4.20;;;11.30;97.20;;;;;;1696500;29;20318;-77
2022/03/15 08:25:59;;;;;;;5.15;3.83;;;11.40;97.20;;;;;;1696333;29;20203;-76
2022/03/15 08:26:50;;;;;;;5.10;3.50;;;11.40;97.20;;;;;;1698612;29;20275;-77
2022/03/15 08:27:41;;;;;;;6.88;4.22;;;11.40;97.20;;;;;;1698719;29;20208;-77
2022/03/15 08:28:33;;;;;;;5.30;4.20;;;11.50;97.20;;;;;;1701073;29;20214;-76
2022/03/15 08:29:24;;;;;;;6.20;3.80;;;11.50;97.20;;;;;;1694960;29;20243;-77
2022/03/15 08:30:15;;;;;;;6.33;4.10;;;11.50;97.20;;;;;;1694905;29;20215;-77
2022/03/15 08:31:06;;;;;;;6.38;4.25;;;11.50;97.20;;;;;;1694785;29;20215;-77
2022/03/15 08:31:58;;;;;;;6.40;3.93;;;11.60;97.20;;;;;;1694932;29;20294;-77
2022/03/15 08:32:49;;;;;;;4.90;3.70;;;11.60;97.20;;;;;;1696200;29;20206;-76
2022/03/15 08:33:41;;;;;;;5.73;3.70;;;11.60;97.20;;;;;;1696629;29;20198;-77
2022/03/15 08:34:32;;;;;;;6.78;4.18;;;11.70;97.20;;;;;;1696569;29;20200;-77
2022/03/15 08:35:25;;;;;;;4.80;3.90;;;11.70;97.20;;;;;;1696031;29;20219;-76
2022/03/15 08:36:17;;;;;;;5.38;4.25;;;11.70;97.20;;;;;;1696615;29;20488;-76
2022/03/15 08:37:10;;;;;;;6.43;4.00;;;11.70;97.20;;;;;;1696850;29;20208;-77
2022/03/15 08:38:00;;;;;;;4.82;3.95;;;11.70;97.20;;;;;;1696717;29;20199;-77
2022/03/15 08:38:52;;;;;;;5.50;3.80;;;11.70;97.20;;;;;;1696787;29;20200;-77
2022/03/15 08:39:43;;;;;;;7.25;4.55;;;11.70;97.20;;;;;;1695796;29;20227;-76
2022/03/15 08:40:35;;;;;;;4.78;4.07;;;11.70;97.20;;;;;;1694990;29;20204;-77
2022/03/15 08:41:26;;;;;;;6.10;4.15;;;11.70;97.20;;;;;;1699328;29;20196;-77
2022/03/15 08:42:18;;;;;;;5.97;4.20;;;11.70;97.20;;;;;;1699202;29;20214;-76
2022/03/15 08:43:09;;;;;;;6.65;4.30;;;11.70;97.20;;;;;;1699001;29;20301;-77
2022/03/15 08:44:00;;;;;;;5.47;4.20;;;11.70;97.20;;;;;;1699101;29;20674;-77
2022/03/15 08:44:52;;;;;;;8.97;4.20;;;11.70;97.20;;;;;;1699358;29;20196;-77
2022/03/15 08:45:43;;;;;;;6.03;4.47;;;11.60;97.20;;;;;;1696982;29;20714;-76
2022/03/15 08:46:34;;;;;;;7.07;4.17;;;11.60;97.20;;;;;;1697131;29;20636;-77
2022/03/15 08:47:25;;;;;;;5.28;3.85;;;11.60;97.20;;;;;;1695817;29;20210;-77
2022/03/15 08:48:17;;;;;;;4.43;3.60;;;11.60;97.20;;;;;;1696436;29;20196;-77
2022/03/15 08:49:08;;;;;;;6.38;4.18;;;11.50;97.20;;;;;;1696149;29;20242;-76
2022/03/15 08:50:00;;;;;;;4.72;3.50;;;11.50;97.20;;;;;;1696437;29;20565;-76
2022/03/15 08:50:52;;;;;;;5.05;3.50;;;11.50;97.20;;;;;;1698780;29;20195;-76
2022/03/15 08:51:44;;;;;;;4.13;3.70;;;11.50;97.20;;;;;;1695424;29;20292;-76
2022/03/15 08:52:35;;;;;;;8.40;4.35;;;11.50;97.20;;;;;;1696523;29;20227;-77
2022/03/15 08:53:27;;;;;;;4.85;4.00;;;11.50;97.20;;;;;;1695553;29;20200;-77
2022/03/15 08:54:18;;;;;;;7.75;4.00;;;11.50;97.20;;;;;;1696493;29;20211;-76
2022/03/15 08:55:10;;;;;;;5.77;4.27;;;11.40;97.20;;;;;;1695474;29;20311;-76
2022/03/15 08:56:01;;;;;;;5.70;3.60;;;11.40;97.20;;;;;;1696499;29;20462;-77
2022/03/15 08:56:53;;;;;;;5.50;4.03;;;11.40;97.20;;;;;;1696545;29;20680;-77
2022/03/15 08:57:44;;;;;;;4.35;3.88;;;11.40;97.20;;;;;;1698547;29;20215;-77
2022/03/15 08:58:35;;;;;;;9.80;4.70;;;11.40;97.20;;;;;;1700936;29;20209;-76
2022/03/15 08:59:26;;;;;;;7.88;4.28;;;11.40;97.20;;;;;;1701115;29;20447;-77
2022/03/15 09:00:18;;;;;;;7.43;4.30;;;11.40;97.20;;;;;;1701248;29;20674;-77
2022/03/15 09:01:09;;;;;;;6.68;4.80;;;11.40;97.20;;;;;;1701152;29;20250;-77
2022/03/15 09:02:01;;;;;;;4.80;3.60;;;11.40;97.20;;;;;;1699639;29;20206;-77
2022/03/15 09:02:51;;;;;;;5.32;4.20;;;11.40;97.20;;;;;;1695201;29;20212;-76
2022/03/15 09:03:43;;;;;;;6.07;4.10;;;11.40;97.20;;;;;;1695760;29;20271;-76
2022/03/15 09:04:34;;;;;;;5.15;4.20;;;11.40;97.20;;;;;;1694732;29;20208;-76
2022/03/15 09:05:26;;;;;;;5.73;4.00;;;11.30;97.20;;;;;;1695632;29;20228;-77
2022/03/15 09:06:18;;;;;;;5.50;3.80;;;11.30;97.20;;;;;;1696251;29;20278;-77
2022/03/15 09:07:10;;;;;;;4.32;3.28;;;11.30;97.20;;;;;;1696072;29;21721;-77
2022/03/15 09:08:01;;;;;;;4.90;4.00;;;11.30;97.20;;;;;;1696444;29;20207;-77
2022/03/15 09:08:53;;;;;;;4.40;3.50;;;11.30;97.20;;;;;;1696558;29;20218;-76
2022/03/15 09:09:43;;;;;;;6.75;3.75;;;11.30;97.20;;;;;;1696146;29;20207;-77
2022/03/15 09:10:36;;;;;;;4.33;3.63;;;11.20;97.20;;;;;;1696318;29;20573;-77
2022/03/15 09:11:27;;;;;;;6.70;4.10;;;11.20;97.20;;;;;;1695359;29;20208;-77
2022/03/15 09:12:18;;;;;;;5.55;3.13;;;11.20;97.20;;;;;;1696103;29;20199;-76
2022/03/15 09:13:10;;;;;;;4.10;3.42;;;11.20;97.20;;;;;;1695949;29;20202;-77
2022/03/15 09:14:02;;;;;;;3.60;3.30;;;11.20;97.20;;;;;;1696551;29;20215;-77
2022/03/15 09:14:53;;;;;;;4.63;3.40;;;11.20;97.20;;;;;;1695838;29;20235;-76
2022/03/15 09:15:45;;;;;;;3.78;3.25;;;11.10;97.20;;;;;;1696003;29;20235;-76
2022/03/15 09:16:36;;;;;;;4.47;3.20;;;11.10;97.20;;;;;;1695797;29;20203;-77
2022/03/15 09:17:28;;;;;;;4.43;3.27;;;11.10;97.20;;;;;;1697065;29;20204;-77
2022/03/15 09:18:19;;;;;;;8.30;4.20;;;11.10;97.20;;;;;;1696548;29;20214;-77
2022/03/15 09:19:11;;;;;;;7.67;3.93;;;11.10;97.20;;;;;;1696453;29;20210;-77
2022/03/15 09:20:02;;;;;;;4.70;4.03;;;11.00;97.20;;;;;;1695692;29;20235;-77
2022/03/15 09:20:54;;;;;;;5.40;3.88;;;11.00;97.20;;;;;;1696795;29;20664;-77
2022/03/15 09:21:46;;;;;;;4.20;3.80;;;11.00;97.20;;;;;;1694995;29;20200;-76
2022/03/15 09:22:38;;;;;;;3.85;3.45;;;11.00;97.20;;;;;;1696047;29;20203;-77
2022/03/15 09:23:29;;;;;;;4.18;3.72;;;11.00;97.20;;;;;;1696370;29;20224;-77
2022/03/15 09:24:20;;;;;;;4.67;3.40;;;11.00;97.20;;;;;;1701094;29;20210;-77
2022/03/15 09:25:11;;;;;;;6.00;4.13;;;11.00;97.20;;;;;;1700838;29;20255;-77
2022/03/15 09:26:04;;;;;;;7.27;4.37;;;11.00;97.20;;;;;;1701056;29;20207;-76
2022/03/15 09:26:54;;;;;;;4.90;4.13;;;11.00;97.20;;;;;;1701139;29;20513;-76
2022/03/15 09:27:47;;;;;;;6.47;4.57;;;11.00;97.20;;;;;;1701057;29;20266;-77
2022/03/15 09:28:38;;;;;;;5.70;3.78;;;11.00;97.20;;;;;;1700692;29;20203;-77
2022/03/15 09:29:29;;;;;;;5.67;4.30;;;11.00;97.20;;;;;;1700925;29;20254;-77
2022/03/15 09:30:20;;;;;;;6.20;4.30;;;11.00;97.20;;;;;;1701047;29;20638;-77
2022/03/15 09:31:12;;;;;;;5.63;4.20;;;11.00;97.20;;;;;;1701036;29;20620;-77
2022/03/15 09:32:04;;;;;;;5.40;4.13;;;11.00;97.20;;;;;;1699562;29;20239;-77
2022/03/15 09:32:55;;;;;;;4.55;3.65;;;11.00;97.20;;;;;;1696548;29;20243;-77
2022/03/15 09:33:46;;;;;;;4.03;3.45;;;11.00;97.20;;;;;;1696647;29;20236;-77
2022/03/15 09:34:38;;;;;;;5.03;4.10;;;11.10;97.20;;;;;;1696916;29;20253;-77
2022/03/15 09:35:29;;;;;;;7.43;3.38;;;11.10;97.20;;;;;;1696201;29;20282;-77
2022/03/15 09:36:21;;;;;;;3.97;3.40;;;11.10;97.20;;;;;;1696071;29;20203;-77
2022/03/15 09:37:13;;;;;;;4.95;3.70;;;11.10;97.20;;;;;;1696102;29;20499;-77
2022/03/15 09:38:06;;;;;;;4.43;3.20;;;11.10;97.20;;;;;;1695409;29;20218;-77
2022/03/15 09:38:57;;;;;;;4.45;3.75;;;11.10;97.20;;;;;;1696840;29;20195;-77
2022/03/15 09:39:49;;;;;;;3.33;2.92;;;11.10;97.20;;;;;;1695630;29;20199;-77
2022/03/15 09:40:40;;;;;;;5.00;4.05;;;11.20;97.20;;;;;;1695706;29;20207;-77
2022/03/15 09:41:35;;;;;;;5.07;3.80;;;11.20;97.20;;;;;;1695507;29;20264;-77
2022/03/15 09:42:30;;;;;;;5.95;3.63;;;11.20;97.20;;;;;;1696181;29;20923;-77
2022/03/15 09:43:22;;;;;;;3.80;3.22;;;11.20;97.20;;;;;;1696303;29;20268;-77
2022/03/15 09:44:17;;;;;;;5.15;3.65;;;11.30;97.20;;;;;;1696123;29;20602;-77
2022/03/15 09:45:08;;;;;;;3.70;3.40;;;11.30;97.20;;;;;;1695762;29;20219;-77
2022/03/15 09:46:02;;;;;;;5.93;3.45;;;11.30;97.20;;;;;;1696973;29;20263;-76
2022/03/15 09:46:59;;;;;;;3.88;3.40;;;11.30;97.20;;;;;;1695597;29;20203;-77
2022/03/15 09:47:55;;;;;;;4.10;3.70;;;11.40;97.20;;;;;;1694784;29;20206;-77
2022/03/15 09:48:49;;;;;;;3.78;3.40;;;11.40;97.20;;;;;;1695892;29;20616;-77
2022/03/15 09:49:44;;;;;;;4.45;3.22;;;11.40;97.20;;;;;;1694746;29;20200;-77
2022/03/15 09:50:36;;;;;;;4.10;3.33;;;11.50;97.20;;;;;;1698578;29;20231;-77
2022/03/15 09:51:32;;;;;;;6.07;4.10;;;11.50;97.20;;;;;;1695926;29;20303;-76
2022/03/15 09:52:25;;;;;;;3.67;3.38;;;11.60;97.20;;;;;;1695420;29;20758;-77
2022/03/15 09:53:18;;;;;;;4.47;3.30;;;11.60;97.20;;;;;;1696107;29;20208;-77
2022/03/15 09:54:09;;;;;;;5.45;3.10;;;11.60;97.20;;;;;;1695169;29;20604;-76
2022/03/15 09:55:02;;;;;;;3.85;3.45;;;11.60;97.20;;;;;;1695015;29;20224;-77
2022/03/15 09:55:52;;;;;;;4.07;3.05;;;11.70;97.20;;;;;;1695416;29;20570;-77
2022/03/15 09:56:44;;;;;;;6.23;4.20;;;11.70;97.20;;;;;;1696738;29;20638;-76
2022/03/15 09:57:35;;;;;;;5.35;3.33;;;11.70;97.20;;;;;;1697737;29;20942;-77
2022/03/15 09:58:27;;;;;;;3.67;3.33;;;11.70;97.20;;;;;;1694075;29;20302;-77
2022/03/15 09:59:20;;;;;;;4.00;3.30;;;11.70;97.20;;;;;;1698757;29;20195;-76
2022/03/15 10:00:13;;;;;;;5.85;3.65;;;11.70;97.20;;;;;;1700876;29;20207;-77
2022/03/15 10:01:03;;;;;;;3.80;3.30;;;11.70;97.20;;;;;;1700829;29;20222;-77
2022/03/15 10:01:57;;;;;;;5.23;3.77;;;11.70;97.20;;;;;;1699902;29;20718;-77
2022/03/15 10:02:48;;;;;;;4.93;3.42;;;11.70;97.20;;;;;;1695862;29;20207;-76
2022/03/15 10:03:40;;;;;;;4.50;3.72;;;11.70;97.20;;;;;;1695704;29;20192;-76
2022/03/15 10:04:32;;;;;;;5.05;3.65;;;11.70;97.20;;;;;;1695949;29;20207;-76
2022/03/15 10:05:24;;;;;;;5.60;3.47;;;11.70;97.20;;;;;;1696160;29;20304;-76
2022/03/15 10:06:16;;;;;;;4.30;3.10;;;11.70;97.20;;;;;;1695764;29;20223;-77
2022/03/15 10:07:08;;;;;;;4.15;3.28;;;11.70;97.20;;;;;;1695860;29;20819;-77
2022/03/15 10:08:01;;;;;;;4.18;3.40;;;11.70;97.20;;;;;;1695148;29;20576;-77
2022/03/15 10:08:52;;;;;;;5.38;3.30;;;11.70;97.20;;;;;;1695969;29;20211;-77
2022/03/15 10:09:44;;;;;;;4.38;3.30;;;11.70;97.20;;;;;;1695600;29;20260;-77
2022/03/15 10:10:35;;;;;;;4.07;3.42;;;11.70;97.20;;;;;;1696012;29;20234;-77
2022/03/15 10:11:28;;;;;;;4.70;3.38;;;11.70;97.20;;;;;;1695314;29;20196;-77
2022/03/15 10:12:18;;;;;;;3.40;3.00;;;11.70;97.20;;;;;;1696719;29;20649;-77
2022/03/15 10:13:10;;;;;;;4.63;3.20;;;11.70;97.20;;;;;;1694905;29;20204;-77
2022/03/15 10:14:01;;;;;;;6.70;3.47;;;11.70;97.20;;;;;;1695619;29;20611;-77
2022/03/15 10:14:55;;;;;;;4.57;3.70;;;11.80;97.20;;;;;;1695734;29;20211;-77
2022/03/15 10:15:51;;;;;;;3.60;3.30;;;11.80;97.20;;;;;;1695755;29;20207;-76
2022/03/15 10:16:43;;;;;;;4.45;3.78;;;11.80;97.20;;;;;;1695770;29;20683;-77
2022/03/15 10:17:42;;;;;;;3.65;3.30;;;11.80;97.20;;;;;;1696281;29;20199;-77
2022/03/15 10:18:33;;;;;;;3.65;3.35;;;11.80;97.20;;;;;;1694473;29;20227;-76
2022/03/15 10:19:25;;;;;;;3.22;2.90;;;11.80;97.20;;;;;;1695074;29;20238;-76
2022/03/15 10:20:19;;;;;;;4.95;3.30;;;11.90;97.20;;;;;;1695291;29;20207;-76
2022/03/15 10:21:09;;;;;;;5.13;3.92;;;11.90;97.20;;;;;;1695726;29;20211;-76
2022/03/15 10:22:03;;;;;;;4.20;3.60;;;11.90;97.20;;;;;;1695053;29;20195;-76
2022/03/15 10:22:56;;;;;;;4.80;3.67;;;11.90;97.20;;;;;;1694813;29;20351;-76
2022/03/15 10:23:55;;;;;;;4.70;3.50;;;12.00;97.20;;;;;;1696054;29;20215;-77
2022/03/15 10:24:46;;;;;;;5.78;3.00;;;12.00;97.20;;;;;;1696456;29;20661;-77
2022/03/15 10:25:43;;;;;;;5.57;3.65;;;12.00;97.20;;;;;;1695673;29;20192;-77
2022/03/15 10:26:37;;;;;;;5.72;3.40;;;12.10;97.20;;;;;;1696598;29;20196;-77
2022/03/15 10:27:34;;;;;;;3.90;3.38;;;12.10;97.20;;;;;;1696287;29;20208;-77
2022/03/15 10:28:25;;;;;;;6.50;3.53;;;12.10;97.20;;;;;;1693969;29;20222;-77
2022/03/15 10:29:18;;;;;;;7.20;3.63;;;12.20;97.20;;;;;;1697051;29;20205;-77
2022/03/15 10:30:09;;;;;;;6.10;4.63;;;12.20;97.20;;;;;;1700716;29;20203;-77